Altoona, WI

12:24 AM CDT on September 20, 2014 (GMT -0500)
Memorial High area | Change Station
CLOSE
Current Station
Personal Weather Station
Location: Eau Claire, WI
Elevation: 880 ft
Nearby Weather Stations

Elev 880 ft 44.80 °N, 91.48 °W | Updated 5 seconds ago

Overcast
Overcast
68.2 °F
Feels Like 68.2 °F
N
2.2
Wind Variable Wind from SW
Gusts 5.4 mph

Today
High -- | Low -- °F
--% Chance of Precip.
Yesterday
High -- | Low -- °F
Precip. -- in
6:50 AM 7:06 PM
Waning Crescent, 14% visible
Pressure 29.69 in
Visibility 10.0 miles
Clouds Mostly Cloudy 4200 ft
Overcast 5000 ft
Dew Point 64 °F
Humidity 88%
Rainfall 0.00 in
Snow Depth Not available.
UV 0 out of 12
Pollen 4.60 out of 12
Air Quality Not available.
Flu Activity Not available.
METAR KEAU 200456Z AUTO 20009KT 10SM BKN042 OVC050 20/17 A2970 RMK AO2 SLP053 T02000167

More Conditions Fewer Conditions

Pressure 29.69 in
Visibility 10.0 miles
Clouds Mostly Cloudy 4200 ft
Overcast 5000 ft
Dew Point 64 °F
Humidity 88%
Rainfall 0.00 in
Snow Depth Not available.
UV 0 out of 12
Pollen 4.60 out of 12
Air Quality Not available.
Flu Activity Not available.
METAR KEAU 200456Z AUTO 20009KT 10SM BKN042 OVC050 20/17 A2970 RMK AO2 SLP053 T02000167

More Conditions Fewer Conditions

Nowcast | as of 10:59 PM CDT on September 19, 2014

Rain is ending across west central Wisconsin. A line of thunderstorms with small hail has moved out of west central Wisconsin into central Wisconsin between now and 100 am.

×

10-Day Weather Forecast

Almanac

Astronomy

Sep. 20, 2014 Rise Set
Actual Time 6:50 AM CDT 7:06 PM CDT
Civil Twilight 6:21 AM CDT 7:36 PM CDT
Nautical Twilight 5:46 AM CDT 8:10 PM CDT
Astronomical Twilight 5:11 AM CDT 8:45 PM CDT
Moon 3:23 AM CDT 5:16 PM CDT
Length of Visible Light 13h 14m
Length of Day
12h 16m
Tomorrow will be 3m 5s shorter.
Waning Crescent, 14% of the Moon is Illuminated
Today
Waning Crescent
Sep 24
New
Oct 1
First Quarter
Oct 8
Full
Oct 15
Last Quarter

Today's Extremes

State Highs State Lows

Community

WunderPhotos

Upload Photos

1,754,777 photos uploaded!

WunderBlogs® & News

Nearby

Snow Depth

Station Depth Elevation
No new snow has been reported.

Earthquake Activity

City Distance Mag. Time & Date
No recent earthquake activity has been reported nearby.
Minimum magnitude displayed is 2.5.

Coastal Water Temperatures

Place Temperature
No Stations Reporting

Nearby Weather Stations